createdAt,value
2023-05-07T00:03:34.549Z,1.52
2023-05-07T00:08:38.250Z,1.30
2023-05-07T00:13:41.970Z,1.63
2023-05-07T00:18:47.335Z,1.48
2023-05-07T00:23:50.912Z,1.50
2023-05-07T00:28:54.570Z,1.40
2023-05-07T00:33:59.813Z,1.40
2023-05-07T00:39:03.432Z,1.50
2023-05-07T00:44:07.026Z,1.90
2023-05-07T00:49:12.461Z,1.70
2023-05-07T00:54:16.225Z,1.70
2023-05-07T00:59:20.377Z,1.50
2023-05-07T01:04:25.731Z,1.58
2023-05-07T01:09:30.643Z,1.88
2023-05-07T01:14:34.593Z,1.75
2023-05-07T01:19:39.967Z,1.70
2023-05-07T01:24:45.500Z,1.95
2023-05-07T01:29:49.122Z,1.80
2023-05-07T01:34:54.719Z,1.90
2023-05-07T01:45:02.958Z,1.80
2023-05-07T01:50:09.229Z,1.70
2023-05-07T01:55:14.964Z,1.80
2023-05-07T02:00:19.220Z,1.70
2023-05-07T02:05:23.130Z,1.90
2023-05-07T02:10:28.508Z,1.83
2023-05-07T02:15:32.225Z,1.80
2023-05-07T02:20:35.850Z,2.00
2023-05-07T02:25:42.700Z,1.70
2023-05-07T02:30:46.401Z,2.08
2023-05-07T02:35:50.037Z,2.05
2023-05-07T02:40:55.305Z,1.80
2023-05-07T02:46:09.059Z,2.10
2023-05-07T02:51:12.682Z,1.90
2023-05-07T02:56:17.985Z,1.88
2023-05-07T03:01:21.699Z,2.30
2023-05-07T03:06:25.555Z,2.05
2023-05-07T03:11:31.163Z,2.10
2023-05-07T03:16:34.835Z,2.20
2023-05-07T03:21:38.487Z,2.10
2023-05-07T03:26:43.711Z,1.85
2023-05-07T03:31:47.502Z,2.10
2023-05-07T03:36:51.262Z,2.00
2023-05-07T03:41:57.488Z,2.35
2023-05-07T03:47:01.092Z,1.90
2023-05-07T03:52:04.915Z,2.35
2023-05-07T03:57:10.193Z,1.90
2023-05-07T04:02:13.859Z,2.20
2023-05-07T04:07:17.587Z,2.30
2023-05-07T04:12:22.908Z,1.77
2023-05-07T04:17:26.683Z,2.40
2023-05-07T04:22:30.345Z,2.00
2023-05-07T04:27:35.624Z,2.10
2023-05-07T04:32:42.027Z,2.33
2023-05-07T04:37:45.742Z,2.30
2023-05-07T04:42:51.935Z,2.55
2023-05-07T04:47:55.625Z,2.60
2023-05-07T04:52:59.256Z,2.53
2023-05-07T04:58:04.550Z,2.38
2023-05-07T05:03:08.917Z,2.50
2023-05-07T05:08:12.726Z,2.50
2023-05-07T05:13:18.144Z,2.50
2023-05-07T05:18:21.793Z,2.50
2023-05-07T05:23:25.534Z,3.20
2023-05-07T05:28:30.842Z,3.00
2023-05-07T05:33:34.500Z,2.70
2023-05-07T05:38:38.233Z,2.72
2023-05-07T05:43:43.492Z,2.78
2023-05-07T05:48:47.166Z,2.80
2023-05-07T05:53:50.770Z,2.72
2023-05-07T05:58:56.082Z,3.00
2023-05-07T06:03:59.695Z,3.20
2023-05-07T06:09:03.326Z,2.88
2023-05-07T06:14:08.604Z,2.80
2023-05-07T06:19:12.295Z,3.07
2023-05-07T06:24:16.005Z,3.10
2023-05-07T06:29:22.107Z,2.83
2023-05-07T06:39:28.560Z,3.38
2023-05-07T06:44:34.789Z,3.33
2023-05-07T06:49:38.465Z,3.08
2023-05-07T06:54:42.678Z,3.53
2023-05-07T06:59:47.954Z,3.60
2023-05-07T07:04:51.681Z,3.30
2023-05-07T07:09:55.349Z,3.33
2023-05-07T07:15:00.716Z,3.70
2023-05-07T07:20:04.687Z,3.13
2023-05-07T07:25:10.954Z,3.50
2023-05-07T07:30:17.716Z,3.70
2023-05-07T07:35:21.311Z,3.17
2023-05-07T07:40:24.999Z,3.28
2023-05-07T07:45:30.262Z,3.30
2023-05-07T07:50:44.573Z,3.47
2023-05-07T07:55:49.189Z,3.40
2023-05-07T08:00:54.461Z,3.40
2023-05-07T08:05:58.069Z,3.20
2023-05-07T08:11:01.738Z,3.63
2023-05-07T08:16:07.499Z,3.20
2023-05-07T08:21:11.170Z,3.30
2023-05-07T08:26:14.813Z,3.15
2023-05-07T08:31:20.234Z,3.35
2023-05-07T08:36:23.880Z,3.50
2023-05-07T08:41:27.555Z,3.30
2023-05-07T08:46:34.232Z,3.00
2023-05-07T08:51:38.222Z,3.58
2023-05-07T08:56:42.170Z,3.40
2023-05-07T09:01:48.624Z,3.30
2023-05-07T09:06:52.340Z,3.60
2023-05-07T09:11:59.899Z,3.58
2023-05-07T09:17:05.137Z,3.40
2023-05-07T09:22:08.732Z,3.38
2023-05-07T09:27:12.330Z,3.47
2023-05-07T09:32:17.666Z,3.25
2023-05-07T09:37:21.334Z,3.30
2023-05-07T09:42:27.922Z,3.28
2023-05-07T09:47:38.386Z,3.50
2023-05-07T09:52:44.657Z,3.20
2023-05-07T10:02:54.653Z,3.20
2023-05-07T10:07:59.470Z,3.45
2023-05-07T10:13:04.585Z,3.55
2023-05-07T10:18:11.069Z,3.28
2023-05-07T10:23:19.849Z,3.30
2023-05-07T10:28:26.338Z,3.50
2023-05-07T10:33:32.336Z,3.90
2023-05-07T10:38:36.150Z,3.70
2023-05-07T10:43:43.901Z,3.90
2023-05-07T10:49:10.812Z,3.20
2023-05-07T10:54:24.436Z,3.30
2023-05-07T10:59:37.821Z,3.47
2023-05-07T11:04:43.164Z,3.10
2023-05-07T11:10:06.284Z,3.27
2023-05-07T11:15:11.089Z,3.75
2023-05-07T11:20:16.671Z,3.33
2023-05-07T11:25:24.139Z,3.15
2023-05-07T11:30:27.947Z,3.38
2023-05-07T11:35:35.594Z,3.33
2023-05-07T11:40:51.695Z,3.20
2023-05-07T11:45:55.686Z,3.60
2023-05-07T11:51:05.315Z,3.30
2023-05-07T11:56:09.793Z,3.05
2023-05-07T12:01:14.789Z,3.50
2023-05-07T12:06:20.030Z,3.20
2023-05-07T12:11:27.548Z,3.08
2023-05-07T12:16:32.334Z,3.13
2023-05-07T12:21:37.906Z,3.42
2023-05-07T12:26:41.810Z,2.70
2023-05-07T12:31:45.688Z,3.35
2023-05-07T12:36:50.984Z,3.22
2023-05-07T12:41:58.717Z,2.83
2023-05-07T12:47:04.459Z,3.30
2023-05-07T12:52:10.768Z,3.00
2023-05-07T12:57:14.339Z,3.05
2023-05-07T13:02:17.957Z,2.85
2023-05-07T13:07:28.260Z,3.00
2023-05-07T13:12:32.845Z,2.90
2023-05-07T13:17:36.523Z,2.90
2023-05-07T13:22:41.823Z,2.88
2023-05-07T13:27:45.900Z,2.97
2023-05-07T13:32:50.425Z,2.70
2023-05-07T13:37:55.797Z,2.42
2023-05-07T13:43:00.054Z,2.75
2023-05-07T13:48:03.719Z,2.58
2023-05-07T13:53:09.394Z,2.70
2023-05-07T13:58:13.147Z,2.90
2023-05-07T14:03:16.894Z,2.95
2023-05-07T14:08:22.281Z,3.00
2023-05-07T14:13:26.014Z,3.05
2023-05-07T14:18:29.741Z,3.10
2023-05-07T14:23:35.067Z,2.85
2023-05-07T14:28:38.679Z,2.97
2023-05-07T14:33:42.505Z,3.00
2023-05-07T14:38:47.782Z,2.80
2023-05-07T14:43:52.071Z,2.78
2023-05-07T14:48:55.671Z,2.78
2023-05-07T14:54:00.945Z,2.50
2023-05-07T14:59:05.047Z,2.37
2023-05-07T15:04:08.755Z,2.65
2023-05-07T15:09:14.046Z,2.60
2023-05-07T15:14:17.816Z,2.87
2023-05-07T15:19:21.446Z,2.53
2023-05-07T15:24:26.850Z,2.30
2023-05-07T15:29:30.498Z,2.40
2023-05-07T15:34:34.102Z,2.70
2023-05-07T15:39:39.353Z,2.92
2023-05-07T15:44:43.066Z,2.43
2023-05-07T15:49:46.722Z,2.33
2023-05-07T15:54:51.984Z,1.90
2023-05-07T15:59:55.597Z,2.30
2023-05-07T16:04:59.183Z,2.10
2023-05-07T16:10:04.746Z,1.85
2023-05-07T16:15:09.183Z,1.75
2023-05-07T16:20:13.891Z,2.28
2023-05-07T16:25:19.252Z,2.00
2023-05-07T16:30:23.055Z,1.90
2023-05-07T16:35:26.748Z,2.30
2023-05-07T16:40:32.065Z,2.08
2023-05-07T16:45:35.665Z,2.40
2023-05-07T16:50:39.404Z,2.30
2023-05-07T16:55:44.672Z,2.40
2023-05-07T17:00:51.096Z,2.50
2023-05-07T17:05:55.331Z,2.60
2023-05-07T17:11:00.640Z,2.50
2023-05-07T17:16:04.432Z,2.38
2023-05-07T17:21:08.158Z,1.83
2023-05-07T17:26:17.103Z,1.85
2023-05-07T17:31:20.756Z,1.80
2023-05-07T17:36:25.026Z,1.92
2023-05-07T17:41:30.353Z,2.30
2023-05-07T17:46:34.455Z,2.20
2023-05-07T17:51:52.559Z,1.52
2023-05-07T17:56:59.816Z,1.50
2023-05-07T18:02:03.465Z,1.50
2023-05-07T18:07:07.084Z,1.45
2023-05-07T18:12:12.298Z,1.48
2023-05-07T18:17:15.964Z,1.33
2023-05-07T18:22:19.653Z,1.30
2023-05-07T18:27:24.895Z,1.55
2023-05-07T18:32:28.606Z,1.63
2023-05-07T18:37:32.183Z,1.60
2023-05-07T18:42:37.407Z,1.63
2023-05-07T18:47:41.064Z,1.48
2023-05-07T18:52:44.730Z,1.70
2023-05-07T18:57:50.146Z,1.38
2023-05-07T19:07:56.631Z,2.50
2023-05-07T19:13:01.957Z,1.30
2023-05-07T19:23:08.874Z,1.25
2023-05-07T19:28:14.151Z,1.27
2023-05-07T19:33:17.750Z,1.60
2023-05-07T19:38:21.370Z,1.67
2023-05-07T19:43:26.649Z,1.38
2023-05-07T19:48:30.266Z,1.60
2023-05-07T19:53:33.904Z,1.58
2023-05-07T19:58:39.431Z,1.63
2023-05-07T20:03:43.248Z,1.88
2023-05-07T20:08:47.176Z,1.75
2023-05-07T20:13:52.449Z,2.15
2023-05-07T20:18:56.089Z,1.95
2023-05-07T20:24:00.428Z,1.52
2023-05-07T20:29:05.696Z,1.77
2023-05-07T20:39:12.248Z,2.17
2023-05-07T20:44:17.532Z,1.50
2023-05-07T20:54:23.963Z,1.90
2023-05-07T20:59:29.274Z,1.85
2023-05-07T21:09:36.106Z,1.88
2023-05-07T21:14:42.276Z,1.88
2023-05-07T21:19:45.899Z,2.00
2023-05-07T21:24:49.499Z,1.95
2023-05-07T21:29:54.736Z,1.90
2023-05-07T21:40:01.172Z,1.60
2023-05-07T21:45:08.628Z,1.90
2023-05-07T21:50:12.658Z,2.00
2023-05-07T21:55:17.991Z,1.60
2023-05-07T22:00:23.446Z,1.60
2023-05-07T22:05:27.115Z,1.50
2023-05-07T22:10:31.218Z,1.15
2023-05-07T22:15:45.515Z,1.73
2023-05-07T22:20:57.174Z,1.25
2023-05-07T22:26:00.828Z,1.50
2023-05-07T22:31:06.215Z,1.50
2023-05-07T22:36:10.311Z,1.58
2023-05-07T22:41:13.930Z,1.70
2023-05-07T22:46:19.341Z,2.33
2023-05-07T22:56:25.822Z,4.30
2023-05-07T23:01:31.138Z,3.33
2023-05-07T23:11:37.673Z,2.58
2023-05-07T23:16:43.044Z,2.17
2023-05-07T23:26:49.718Z,1.30
2023-05-07T23:31:56.297Z,1.52
2023-05-07T23:36:59.930Z,1.77
2023-05-07T23:42:03.670Z,1.48
2023-05-07T23:47:08.913Z,1.70
2023-05-07T23:52:12.572Z,1.50
2023-05-07T23:57:16.920Z,1.60
